sensor_id;sensor_type;location;lat;lon;timestamp;P1;durP1;ratioP1;P2;durP2;ratioP2
25905;SDS011;13713;52.552;13.204;2024-03-02T00:00:10;67.65;;;38.08;;
25905;SDS011;13713;52.552;13.204;2024-03-02T00:02:39;65.75;;;37.38;;
25905;SDS011;13713;52.552;13.204;2024-03-02T00:05:06;63.47;;;36.97;;
25905;SDS011;13713;52.552;13.204;2024-03-02T00:07:32;63.22;;;37.30;;
25905;SDS011;13713;52.552;13.204;2024-03-02T00:09:58;67.57;;;37.80;;
25905;SDS011;13713;52.552;13.204;2024-03-02T00:12:25;69.00;;;39.88;;
25905;SDS011;13713;52.552;13.204;2024-03-02T00:14:51;63.15;;;37.63;;
25905;SDS011;13713;52.552;13.204;2024-03-02T00:17:17;67.50;;;39.88;;
25905;SDS011;13713;52.552;13.204;2024-03-02T00:19:51;69.22;;;39.65;;
25905;SDS011;13713;52.552;13.204;2024-03-02T00:22:17;65.47;;;37.92;;
25905;SDS011;13713;52.552;13.204;2024-03-02T00:24:43;63.28;;;36.83;;
25905;SDS011;13713;52.552;13.204;2024-03-02T00:27:09;63.72;;;37.60;;
25905;SDS011;13713;52.552;13.204;2024-03-02T00:29:40;67.30;;;38.60;;
25905;SDS011;13713;52.552;13.204;2024-03-02T00:32:16;66.70;;;37.45;;
25905;SDS011;13713;52.552;13.204;2024-03-02T00:34:42;63.88;;;37.25;;
25905;SDS011;13713;52.552;13.204;2024-03-02T00:37:08;69.57;;;38.65;;
25905;SDS011;13713;52.552;13.204;2024-03-02T00:39:34;64.75;;;37.58;;
25905;SDS011;13713;52.552;13.204;2024-03-02T00:42:00;67.28;;;37.60;;
25905;SDS011;13713;52.552;13.204;2024-03-02T00:44:26;64.70;;;37.45;;
25905;SDS011;13713;52.552;13.204;2024-03-02T00:46:55;66.13;;;38.50;;
25905;SDS011;13713;52.552;13.204;2024-03-02T00:49:23;71.40;;;41.03;;
25905;SDS011;13713;52.552;13.204;2024-03-02T00:51:51;66.65;;;38.05;;
25905;SDS011;13713;52.552;13.204;2024-03-02T00:54:19;62.55;;;36.95;;
25905;SDS011;13713;52.552;13.204;2024-03-02T00:56:49;68.70;;;39.08;;
25905;SDS011;13713;52.552;13.204;2024-03-02T00:59:16;63.95;;;37.15;;
25905;SDS011;13713;52.552;13.204;2024-03-02T01:01:42;67.10;;;38.00;;
25905;SDS011;13713;52.552;13.204;2024-03-02T01:04:08;66.10;;;39.22;;
25905;SDS011;13713;52.552;13.204;2024-03-02T01:06:37;63.15;;;37.90;;
25905;SDS011;13713;52.552;13.204;2024-03-02T01:09:03;65.93;;;38.22;;
25905;SDS011;13713;52.552;13.204;2024-03-02T01:11:29;66.03;;;38.97;;
25905;SDS011;13713;52.552;13.204;2024-03-02T01:13:55;67.03;;;38.28;;
25905;SDS011;13713;52.552;13.204;2024-03-02T01:16:21;65.07;;;37.97;;
25905;SDS011;13713;52.552;13.204;2024-03-02T01:18:47;66.07;;;38.25;;
25905;SDS011;13713;52.552;13.204;2024-03-02T01:21:13;68.90;;;40.03;;
25905;SDS011;13713;52.552;13.204;2024-03-02T01:23:39;61.33;;;37.33;;
25905;SDS011;13713;52.552;13.204;2024-03-02T01:26:04;64.15;;;37.95;;
25905;SDS011;13713;52.552;13.204;2024-03-02T01:28:30;65.72;;;39.20;;
25905;SDS011;13713;52.552;13.204;2024-03-02T01:30:56;67.25;;;39.70;;
25905;SDS011;13713;52.552;13.204;2024-03-02T01:33:22;69.63;;;40.08;;
25905;SDS011;13713;52.552;13.204;2024-03-02T01:35:48;69.18;;;39.70;;
25905;SDS011;13713;52.552;13.204;2024-03-02T01:38:13;66.97;;;40.13;;
25905;SDS011;13713;52.552;13.204;2024-03-02T01:40:39;66.40;;;39.45;;
25905;SDS011;13713;52.552;13.204;2024-03-02T01:43:05;68.00;;;39.65;;
25905;SDS011;13713;52.552;13.204;2024-03-02T01:45:32;71.60;;;38.55;;
25905;SDS011;13713;52.552;13.204;2024-03-02T01:47:59;67.22;;;38.30;;
25905;SDS011;13713;52.552;13.204;2024-03-02T01:50:28;66.05;;;38.80;;
25905;SDS011;13713;52.552;13.204;2024-03-02T01:52:57;67.88;;;38.15;;
25905;SDS011;13713;52.552;13.204;2024-03-02T01:55:23;62.55;;;36.83;;
25905;SDS011;13713;52.552;13.204;2024-03-02T01:57:49;63.38;;;37.88;;
25905;SDS011;13713;52.552;13.204;2024-03-02T02:00:16;69.85;;;38.83;;
25905;SDS011;13713;52.552;13.204;2024-03-02T02:02:43;68.40;;;39.22;;
25905;SDS011;13713;52.552;13.204;2024-03-02T02:05:09;69.45;;;40.15;;
25905;SDS011;13713;52.552;13.204;2024-03-02T02:07:35;69.85;;;39.72;;
25905;SDS011;13713;52.552;13.204;2024-03-02T02:10:01;68.07;;;39.75;;
25905;SDS011;13713;52.552;13.204;2024-03-02T02:12:27;67.88;;;38.55;;
25905;SDS011;13713;52.552;13.204;2024-03-02T02:14:53;67.10;;;38.72;;
25905;SDS011;13713;52.552;13.204;2024-03-02T02:17:19;67.43;;;39.55;;
25905;SDS011;13713;52.552;13.204;2024-03-02T02:19:45;69.10;;;39.60;;
25905;SDS011;13713;52.552;13.204;2024-03-02T02:22:11;68.78;;;40.25;;
25905;SDS011;13713;52.552;13.204;2024-03-02T02:24:43;65.22;;;37.38;;
25905;SDS011;13713;52.552;13.204;2024-03-02T02:27:09;65.68;;;38.55;;
25905;SDS011;13713;52.552;13.204;2024-03-02T02:29:40;62.80;;;37.88;;
25905;SDS011;13713;52.552;13.204;2024-03-02T02:32:06;66.78;;;40.22;;
25905;SDS011;13713;52.552;13.204;2024-03-02T02:34:32;64.00;;;38.38;;
25905;SDS011;13713;52.552;13.204;2024-03-02T02:36:58;64.72;;;38.08;;
25905;SDS011;13713;52.552;13.204;2024-03-02T02:39:24;70.93;;;38.67;;
25905;SDS011;13713;52.552;13.204;2024-03-02T02:41:50;65.80;;;38.70;;
25905;SDS011;13713;52.552;13.204;2024-03-02T02:44:16;63.80;;;38.13;;
25905;SDS011;13713;52.552;13.204;2024-03-02T02:46:42;64.03;;;38.58;;
25905;SDS011;13713;52.552;13.204;2024-03-02T02:49:07;67.43;;;39.10;;
25905;SDS011;13713;52.552;13.204;2024-03-02T02:51:33;69.60;;;38.70;;
25905;SDS011;13713;52.552;13.204;2024-03-02T02:53:59;66.82;;;37.55;;
25905;SDS011;13713;52.552;13.204;2024-03-02T02:56:25;64.38;;;38.33;;
25905;SDS011;13713;52.552;13.204;2024-03-02T02:58:51;69.15;;;39.33;;
25905;SDS011;13713;52.552;13.204;2024-03-02T03:01:17;66.60;;;38.75;;
25905;SDS011;13713;52.552;13.204;2024-03-02T03:03:45;67.70;;;39.10;;
25905;SDS011;13713;52.552;13.204;2024-03-02T03:06:11;67.60;;;38.72;;
25905;SDS011;13713;52.552;13.204;2024-03-02T03:08:37;69.32;;;40.13;;
25905;SDS011;13713;52.552;13.204;2024-03-02T03:11:03;68.95;;;40.13;;
25905;SDS011;13713;52.552;13.204;2024-03-02T03:13:33;68.63;;;39.60;;
25905;SDS011;13713;52.552;13.204;2024-03-02T03:15:59;72.32;;;41.70;;
25905;SDS011;13713;52.552;13.204;2024-03-02T03:18:25;75.78;;;41.20;;
25905;SDS011;13713;52.552;13.204;2024-03-02T03:20:52;71.70;;;40.92;;
25905;SDS011;13713;52.552;13.204;2024-03-02T03:23:17;71.85;;;41.30;;
25905;SDS011;13713;52.552;13.204;2024-03-02T03:25:43;74.03;;;41.65;;
25905;SDS011;13713;52.552;13.204;2024-03-02T03:28:09;72.32;;;39.85;;
25905;SDS011;13713;52.552;13.204;2024-03-02T03:30:38;70.75;;;40.92;;
25905;SDS011;13713;52.552;13.204;2024-03-02T03:33:04;68.70;;;40.10;;
25905;SDS011;13713;52.552;13.204;2024-03-02T03:35:33;72.88;;;41.22;;
25905;SDS011;13713;52.552;13.204;2024-03-02T03:37:59;69.22;;;40.50;;
25905;SDS011;13713;52.552;13.204;2024-03-02T03:40:25;71.65;;;41.45;;
25905;SDS011;13713;52.552;13.204;2024-03-02T03:42:51;67.50;;;38.55;;
25905;SDS011;13713;52.552;13.204;2024-03-02T03:45:17;69.47;;;42.08;;
25905;SDS011;13713;52.552;13.204;2024-03-02T03:47:43;72.07;;;40.58;;
25905;SDS011;13713;52.552;13.204;2024-03-02T03:50:09;73.72;;;41.80;;
25905;SDS011;13713;52.552;13.204;2024-03-02T03:52:35;70.80;;;40.88;;
25905;SDS011;13713;52.552;13.204;2024-03-02T03:55:01;66.70;;;39.78;;
25905;SDS011;13713;52.552;13.204;2024-03-02T03:57:27;70.55;;;41.05;;
25905;SDS011;13713;52.552;13.204;2024-03-02T03:59:53;67.35;;;40.90;;
25905;SDS011;13713;52.552;13.204;2024-03-02T04:02:19;67.10;;;38.90;;
25905;SDS011;13713;52.552;13.204;2024-03-02T04:04:44;73.07;;;41.63;;
25905;SDS011;13713;52.552;13.204;2024-03-02T04:07:11;71.05;;;41.22;;
25905;SDS011;13713;52.552;13.204;2024-03-02T04:09:36;71.07;;;41.38;;
25905;SDS011;13713;52.552;13.204;2024-03-02T04:12:02;73.18;;;41.50;;
25905;SDS011;13713;52.552;13.204;2024-03-02T04:14:28;69.88;;;41.38;;
25905;SDS011;13713;52.552;13.204;2024-03-02T04:16:54;64.82;;;39.30;;
25905;SDS011;13713;52.552;13.204;2024-03-02T04:19:20;68.78;;;40.80;;
25905;SDS011;13713;52.552;13.204;2024-03-02T04:21:46;66.25;;;40.22;;
25905;SDS011;13713;52.552;13.204;2024-03-02T04:24:12;68.03;;;39.47;;
25905;SDS011;13713;52.552;13.204;2024-03-02T04:26:38;66.75;;;40.15;;
25905;SDS011;13713;52.552;13.204;2024-03-02T04:29:03;69.88;;;41.45;;
25905;SDS011;13713;52.552;13.204;2024-03-02T04:31:29;66.60;;;38.28;;
25905;SDS011;13713;52.552;13.204;2024-03-02T04:33:55;68.78;;;40.80;;
25905;SDS011;13713;52.552;13.204;2024-03-02T04:36:20;67.30;;;39.97;;
25905;SDS011;13713;52.552;13.204;2024-03-02T04:38:46;69.10;;;40.65;;
25905;SDS011;13713;52.552;13.204;2024-03-02T04:41:13;68.93;;;40.75;;
25905;SDS011;13713;52.552;13.204;2024-03-02T04:43:39;69.95;;;40.58;;
25905;SDS011;13713;52.552;13.204;2024-03-02T04:46:05;68.70;;;40.33;;
25905;SDS011;13713;52.552;13.204;2024-03-02T04:48:32;66.10;;;39.88;;
25905;SDS011;13713;52.552;13.204;2024-03-02T04:50:58;68.53;;;39.97;;
25905;SDS011;13713;52.552;13.204;2024-03-02T04:53:23;68.25;;;38.88;;
25905;SDS011;13713;52.552;13.204;2024-03-02T04:55:50;62.80;;;39.90;;
25905;SDS011;13713;52.552;13.204;2024-03-02T04:58:34;68.63;;;40.88;;
25905;SDS011;13713;52.552;13.204;2024-03-02T05:01:00;64.47;;;38.92;;
25905;SDS011;13713;52.552;13.204;2024-03-02T05:03:26;71.03;;;41.30;;
25905;SDS011;13713;52.552;13.204;2024-03-02T05:05:52;66.18;;;40.03;;
25905;SDS011;13713;52.552;13.204;2024-03-02T05:08:17;69.13;;;40.90;;
25905;SDS011;13713;52.552;13.204;2024-03-02T05:10:43;69.05;;;39.33;;
25905;SDS011;13713;52.552;13.204;2024-03-02T05:13:09;69.40;;;42.25;;
25905;SDS011;13713;52.552;13.204;2024-03-02T05:15:35;68.00;;;40.67;;
25905;SDS011;13713;52.552;13.204;2024-03-02T05:18:00;62.05;;;38.80;;
25905;SDS011;13713;52.552;13.204;2024-03-02T05:20:30;73.93;;;41.75;;
25905;SDS011;13713;52.552;13.204;2024-03-02T05:22:56;69.00;;;39.67;;
25905;SDS011;13713;52.552;13.204;2024-03-02T05:25:22;68.85;;;40.40;;
25905;SDS011;13713;52.552;13.204;2024-03-02T05:27:47;70.18;;;40.53;;
25905;SDS011;13713;52.552;13.204;2024-03-02T05:30:13;69.78;;;40.88;;
25905;SDS011;13713;52.552;13.204;2024-03-02T05:32:39;71.65;;;42.58;;
25905;SDS011;13713;52.552;13.204;2024-03-02T05:35:05;70.47;;;42.05;;
25905;SDS011;13713;52.552;13.204;2024-03-02T05:37:33;67.25;;;40.38;;
25905;SDS011;13713;52.552;13.204;2024-03-02T05:39:59;74.25;;;41.95;;
25905;SDS011;13713;52.552;13.204;2024-03-02T05:42:24;72.43;;;42.70;;
25905;SDS011;13713;52.552;13.204;2024-03-02T05:44:50;69.60;;;40.05;;
25905;SDS011;13713;52.552;13.204;2024-03-02T05:47:16;75.05;;;43.33;;
25905;SDS011;13713;52.552;13.204;2024-03-02T05:49:42;70.32;;;41.28;;
25905;SDS011;13713;52.552;13.204;2024-03-02T05:52:08;69.88;;;40.60;;
25905;SDS011;13713;52.552;13.204;2024-03-02T05:54:34;72.15;;;42.17;;
25905;SDS011;13713;52.552;13.204;2024-03-02T05:56:59;75.18;;;42.42;;
25905;SDS011;13713;52.552;13.204;2024-03-02T05:59:41;72.20;;;41.47;;
25905;SDS011;13713;52.552;13.204;2024-03-02T06:02:08;73.10;;;42.88;;
25905;SDS011;13713;52.552;13.204;2024-03-02T06:04:34;77.15;;;44.38;;
25905;SDS011;13713;52.552;13.204;2024-03-02T06:07:00;72.30;;;44.28;;
25905;SDS011;13713;52.552;13.204;2024-03-02T06:09:26;70.65;;;41.65;;
25905;SDS011;13713;52.552;13.204;2024-03-02T06:11:52;72.93;;;43.13;;
25905;SDS011;13713;52.552;13.204;2024-03-02T06:14:17;72.68;;;43.17;;
25905;SDS011;13713;52.552;13.204;2024-03-02T06:16:43;72.00;;;40.47;;
25905;SDS011;13713;52.552;13.204;2024-03-02T06:19:09;72.72;;;42.22;;
25905;SDS011;13713;52.552;13.204;2024-03-02T06:21:34;69.07;;;41.35;;
25905;SDS011;13713;52.552;13.204;2024-03-02T06:24:00;69.22;;;41.10;;
25905;SDS011;13713;52.552;13.204;2024-03-02T06:26:26;73.47;;;42.40;;
25905;SDS011;13713;52.552;13.204;2024-03-02T06:28:52;69.65;;;41.63;;
25905;SDS011;13713;52.552;13.204;2024-03-02T06:31:18;71.88;;;42.45;;
25905;SDS011;13713;52.552;13.204;2024-03-02T06:33:44;73.88;;;42.67;;
25905;SDS011;13713;52.552;13.204;2024-03-02T06:36:09;71.28;;;41.92;;
25905;SDS011;13713;52.552;13.204;2024-03-02T06:38:37;69.90;;;41.95;;
25905;SDS011;13713;52.552;13.204;2024-03-02T06:41:02;74.25;;;41.65;;
25905;SDS011;13713;52.552;13.204;2024-03-02T06:43:31;71.15;;;42.10;;
25905;SDS011;13713;52.552;13.204;2024-03-02T06:45:57;67.30;;;41.17;;
25905;SDS011;13713;52.552;13.204;2024-03-02T06:48:23;74.55;;;41.78;;
25905;SDS011;13713;52.552;13.204;2024-03-02T06:50:50;72.63;;;42.35;;
25905;SDS011;13713;52.552;13.204;2024-03-02T06:53:17;70.03;;;41.72;;
25905;SDS011;13713;52.552;13.204;2024-03-02T06:55:43;71.22;;;42.55;;
25905;SDS011;13713;52.552;13.204;2024-03-02T06:58:12;74.45;;;43.03;;
25905;SDS011;13713;52.552;13.204;2024-03-02T07:00:40;72.95;;;42.17;;
25905;SDS011;13713;52.552;13.204;2024-03-02T07:03:06;78.43;;;44.30;;
25905;SDS011;13713;52.552;13.204;2024-03-02T07:05:31;73.68;;;42.13;;
25905;SDS011;13713;52.552;13.204;2024-03-02T07:07:57;67.25;;;41.22;;
25905;SDS011;13713;52.552;13.204;2024-03-02T07:10:23;75.55;;;43.80;;
25905;SDS011;13713;52.552;13.204;2024-03-02T07:12:49;69.68;;;40.88;;
25905;SDS011;13713;52.552;13.204;2024-03-02T07:15:15;71.63;;;42.40;;
25905;SDS011;13713;52.552;13.204;2024-03-02T07:18:04;74.68;;;44.00;;
25905;SDS011;13713;52.552;13.204;2024-03-02T07:20:29;75.95;;;44.15;;
25905;SDS011;13713;52.552;13.204;2024-03-02T07:22:55;70.10;;;42.00;;
25905;SDS011;13713;52.552;13.204;2024-03-02T07:25:21;73.25;;;41.78;;
25905;SDS011;13713;52.552;13.204;2024-03-02T07:27:47;72.60;;;41.92;;
25905;SDS011;13713;52.552;13.204;2024-03-02T07:30:16;71.35;;;41.60;;
25905;SDS011;13713;52.552;13.204;2024-03-02T07:32:42;74.65;;;42.80;;
25905;SDS011;13713;52.552;13.204;2024-03-02T07:35:13;76.00;;;43.35;;
25905;SDS011;13713;52.552;13.204;2024-03-02T07:37:40;74.25;;;42.97;;
25905;SDS011;13713;52.552;13.204;2024-03-02T07:40:07;74.18;;;43.63;;
25905;SDS011;13713;52.552;13.204;2024-03-02T07:42:42;69.50;;;42.00;;
25905;SDS011;13713;52.552;13.204;2024-03-02T07:45:08;75.05;;;42.75;;
25905;SDS011;13713;52.552;13.204;2024-03-02T07:47:34;73.65;;;43.03;;
25905;SDS011;13713;52.552;13.204;2024-03-02T07:50:00;74.75;;;43.40;;
25905;SDS011;13713;52.552;13.204;2024-03-02T07:52:26;72.50;;;43.40;;
25905;SDS011;13713;52.552;13.204;2024-03-02T07:54:52;78.80;;;44.60;;
25905;SDS011;13713;52.552;13.204;2024-03-02T07:57:19;79.13;;;44.47;;
25905;SDS011;13713;52.552;13.204;2024-03-02T07:59:45;73.50;;;43.13;;
25905;SDS011;13713;52.552;13.204;2024-03-02T08:02:11;74.60;;;43.28;;
25905;SDS011;13713;52.552;13.204;2024-03-02T08:04:37;74.07;;;42.17;;
25905;SDS011;13713;52.552;13.204;2024-03-02T08:07:04;74.78;;;43.53;;
25905;SDS011;13713;52.552;13.204;2024-03-02T08:09:29;73.90;;;44.05;;
25905;SDS011;13713;52.552;13.204;2024-03-02T08:11:55;77.18;;;43.72;;
25905;SDS011;13713;52.552;13.204;2024-03-02T08:14:22;79.43;;;43.58;;
25905;SDS011;13713;52.552;13.204;2024-03-02T08:16:49;73.22;;;42.40;;
25905;SDS011;13713;52.552;13.204;2024-03-02T08:19:15;71.63;;;41.90;;
25905;SDS011;13713;52.552;13.204;2024-03-02T08:21:41;77.80;;;44.25;;
25905;SDS011;13713;52.552;13.204;2024-03-02T08:24:08;79.60;;;45.20;;
25905;SDS011;13713;52.552;13.204;2024-03-02T08:26:34;71.38;;;42.28;;
25905;SDS011;13713;52.552;13.204;2024-03-02T08:29:00;72.53;;;43.38;;
25905;SDS011;13713;52.552;13.204;2024-03-02T08:31:29;72.40;;;42.40;;
25905;SDS011;13713;52.552;13.204;2024-03-02T08:33:56;76.43;;;44.20;;
25905;SDS011;13713;52.552;13.204;2024-03-02T08:36:25;78.00;;;44.03;;
25905;SDS011;13713;52.552;13.204;2024-03-02T08:38:51;76.22;;;44.30;;
25905;SDS011;13713;52.552;13.204;2024-03-02T08:41:17;74.55;;;43.35;;
25905;SDS011;13713;52.552;13.204;2024-03-02T08:43:43;73.18;;;42.65;;
25905;SDS011;13713;52.552;13.204;2024-03-02T08:46:09;75.22;;;44.58;;
25905;SDS011;13713;52.552;13.204;2024-03-02T08:48:35;77.45;;;45.53;;
25905;SDS011;13713;52.552;13.204;2024-03-02T08:51:01;75.70;;;44.17;;
25905;SDS011;13713;52.552;13.204;2024-03-02T08:53:29;75.35;;;44.58;;
25905;SDS011;13713;52.552;13.204;2024-03-02T08:55:55;79.43;;;46.08;;
25905;SDS011;13713;52.552;13.204;2024-03-02T08:58:21;77.63;;;44.58;;
25905;SDS011;13713;52.552;13.204;2024-03-02T09:00:47;78.20;;;44.47;;
25905;SDS011;13713;52.552;13.204;2024-03-02T09:03:13;83.93;;;47.45;;
25905;SDS011;13713;52.552;13.204;2024-03-02T09:05:40;79.50;;;45.08;;
25905;SDS011;13713;52.552;13.204;2024-03-02T09:08:05;76.82;;;45.08;;
25905;SDS011;13713;52.552;13.204;2024-03-02T09:10:31;79.65;;;46.80;;
25905;SDS011;13713;52.552;13.204;2024-03-02T09:12:58;78.82;;;45.25;;
25905;SDS011;13713;52.552;13.204;2024-03-02T09:15:24;79.50;;;45.60;;
25905;SDS011;13713;52.552;13.204;2024-03-02T09:17:50;82.30;;;45.25;;
25905;SDS011;13713;52.552;13.204;2024-03-02T09:20:16;80.53;;;46.38;;
25905;SDS011;13713;52.552;13.204;2024-03-02T09:22:42;85.97;;;46.33;;
25905;SDS011;13713;52.552;13.204;2024-03-02T09:25:07;79.25;;;44.90;;
25905;SDS011;13713;52.552;13.204;2024-03-02T09:27:36;82.40;;;47.22;;
25905;SDS011;13713;52.552;13.204;2024-03-02T09:30:03;81.43;;;45.92;;
25905;SDS011;13713;52.552;13.204;2024-03-02T09:32:30;75.25;;;45.05;;
25905;SDS011;13713;52.552;13.204;2024-03-02T09:34:56;78.03;;;44.63;;
25905;SDS011;13713;52.552;13.204;2024-03-02T09:37:23;79.82;;;45.35;;
25905;SDS011;13713;52.552;13.204;2024-03-02T09:39:49;84.32;;;46.47;;
25905;SDS011;13713;52.552;13.204;2024-03-02T09:42:15;80.43;;;46.33;;
25905;SDS011;13713;52.552;13.204;2024-03-02T09:44:41;78.78;;;46.30;;
25905;SDS011;13713;52.552;13.204;2024-03-02T09:47:08;79.35;;;46.25;;
25905;SDS011;13713;52.552;13.204;2024-03-02T09:49:34;79.90;;;45.63;;
25905;SDS011;13713;52.552;13.204;2024-03-02T09:52:00;82.05;;;46.90;;
25905;SDS011;13713;52.552;13.204;2024-03-02T09:54:26;82.93;;;46.83;;
25905;SDS011;13713;52.552;13.204;2024-03-02T09:56:52;76.50;;;45.15;;
25905;SDS011;13713;52.552;13.204;2024-03-02T09:59:17;84.35;;;46.72;;
25905;SDS011;13713;52.552;13.204;2024-03-02T10:01:58;79.60;;;44.92;;
25905;SDS011;13713;52.552;13.204;2024-03-02T10:04:28;79.25;;;45.92;;
25905;SDS011;13713;52.552;13.204;2024-03-02T10:07:15;79.88;;;43.97;;
25905;SDS011;13713;52.552;13.204;2024-03-02T10:09:42;82.32;;;46.30;;
25905;SDS011;13713;52.552;13.204;2024-03-02T10:12:10;81.25;;;46.47;;
25905;SDS011;13713;52.552;13.204;2024-03-02T10:14:37;82.55;;;45.22;;
25905;SDS011;13713;52.552;13.204;2024-03-02T10:17:07;82.93;;;46.20;;
25905;SDS011;13713;52.552;13.204;2024-03-02T10:19:34;82.43;;;45.88;;
25905;SDS011;13713;52.552;13.204;2024-03-02T10:22:02;79.90;;;46.42;;
25905;SDS011;13713;52.552;13.204;2024-03-02T10:24:41;78.05;;;44.72;;
25905;SDS011;13713;52.552;13.204;2024-03-02T10:27:25;82.32;;;46.63;;
25905;SDS011;13713;52.552;13.204;2024-03-02T10:29:52;77.85;;;45.25;;
25905;SDS011;13713;52.552;13.204;2024-03-02T10:32:18;85.65;;;46.72;;
25905;SDS011;13713;52.552;13.204;2024-03-02T10:34:48;87.95;;;47.75;;
25905;SDS011;13713;52.552;13.204;2024-03-02T10:37:15;79.13;;;45.30;;
25905;SDS011;13713;52.552;13.204;2024-03-02T10:39:42;79.32;;;46.00;;
25905;SDS011;13713;52.552;13.204;2024-03-02T10:42:08;86.63;;;47.85;;
25905;SDS011;13713;52.552;13.204;2024-03-02T10:44:34;84.63;;;45.65;;
25905;SDS011;13713;52.552;13.204;2024-03-02T10:47:00;80.00;;;45.05;;
25905;SDS011;13713;52.552;13.204;2024-03-02T10:49:29;83.53;;;47.17;;
25905;SDS011;13713;52.552;13.204;2024-03-02T10:51:56;78.30;;;43.88;;
25905;SDS011;13713;52.552;13.204;2024-03-02T10:54:23;83.28;;;45.67;;
25905;SDS011;13713;52.552;13.204;2024-03-02T10:57:01;78.72;;;44.92;;
25905;SDS011;13713;52.552;13.204;2024-03-02T10:59:33;83.07;;;46.83;;
25905;SDS011;13713;52.552;13.204;2024-03-02T11:02:01;77.22;;;45.22;;
25905;SDS011;13713;52.552;13.204;2024-03-02T11:04:28;81.03;;;46.28;;
25905;SDS011;13713;52.552;13.204;2024-03-02T11:07:16;80.30;;;45.90;;
25905;SDS011;13713;52.552;13.204;2024-03-02T11:09:51;81.63;;;44.75;;
25905;SDS011;13713;52.552;13.204;2024-03-02T11:12:24;80.90;;;44.45;;
25905;SDS011;13713;52.552;13.204;2024-03-02T11:17:20;79.35;;;45.00;;
25905;SDS011;13713;52.552;13.204;2024-03-02T11:19:48;79.82;;;45.40;;
25905;SDS011;13713;52.552;13.204;2024-03-02T11:22:15;79.20;;;44.78;;
25905;SDS011;13713;52.552;13.204;2024-03-02T11:24:51;75.40;;;44.55;;
25905;SDS011;13713;52.552;13.204;2024-03-02T11:31:01;79.75;;;43.80;;
25905;SDS011;13713;52.552;13.204;2024-03-02T11:33:03;80.53;;;44.30;;
25905;SDS011;13713;52.552;13.204;2024-03-02T11:35:36;80.35;;;44.45;;
25905;SDS011;13713;52.552;13.204;2024-03-02T11:38:03;76.90;;;43.85;;
25905;SDS011;13713;52.552;13.204;2024-03-02T11:40:29;80.85;;;46.28;;
25905;SDS011;13713;52.552;13.204;2024-03-02T11:42:59;74.13;;;41.78;;
25905;SDS011;13713;52.552;13.204;2024-03-02T11:45:25;79.57;;;44.75;;
25905;SDS011;13713;52.552;13.204;2024-03-02T11:47:55;76.63;;;43.33;;
25905;SDS011;13713;52.552;13.204;2024-03-02T11:50:29;77.82;;;44.67;;
25905;SDS011;13713;52.552;13.204;2024-03-02T11:53:03;76.13;;;43.83;;
25905;SDS011;13713;52.552;13.204;2024-03-02T11:58:06;77.72;;;42.75;;
25905;SDS011;13713;52.552;13.204;2024-03-02T12:00:32;76.78;;;43.17;;
25905;SDS011;13713;52.552;13.204;2024-03-02T12:03:05;70.88;;;42.35;;
25905;SDS011;13713;52.552;13.204;2024-03-02T12:05:32;74.68;;;43.67;;
25905;SDS011;13713;52.552;13.204;2024-03-02T12:07:59;70.50;;;41.92;;
25905;SDS011;13713;52.552;13.204;2024-03-02T12:10:26;74.40;;;42.97;;
25905;SDS011;13713;52.552;13.204;2024-03-02T12:12:55;74.50;;;41.30;;
25905;SDS011;13713;52.552;13.204;2024-03-02T12:15:28;72.63;;;42.70;;
25905;SDS011;13713;52.552;13.204;2024-03-02T12:17:56;71.63;;;41.70;;
25905;SDS011;13713;52.552;13.204;2024-03-02T12:20:23;73.43;;;41.30;;
25905;SDS011;13713;52.552;13.204;2024-03-02T12:22:53;75.38;;;43.38;;
25905;SDS011;13713;52.552;13.204;2024-03-02T12:25:21;77.45;;;43.03;;
25905;SDS011;13713;52.552;13.204;2024-03-02T12:27:49;73.05;;;41.05;;
25905;SDS011;13713;52.552;13.204;2024-03-02T12:30:17;74.88;;;44.42;;
25905;SDS011;13713;52.552;13.204;2024-03-02T12:32:44;73.15;;;41.60;;
25905;SDS011;13713;52.552;13.204;2024-03-02T12:35:10;75.13;;;42.63;;
25905;SDS011;13713;52.552;13.204;2024-03-02T12:37:49;73.22;;;42.90;;
25905;SDS011;13713;52.552;13.204;2024-03-02T12:40:17;73.20;;;40.60;;
25905;SDS011;13713;52.552;13.204;2024-03-02T12:42:45;72.70;;;42.28;;
25905;SDS011;13713;52.552;13.204;2024-03-02T12:45:12;73.75;;;42.47;;
25905;SDS011;13713;52.552;13.204;2024-03-02T12:47:42;69.80;;;41.72;;
25905;SDS011;13713;52.552;13.204;2024-03-02T12:50:08;71.38;;;42.22;;
25905;SDS011;13713;52.552;13.204;2024-03-02T12:52:35;72.47;;;43.13;;
25905;SDS011;13713;52.552;13.204;2024-03-02T12:55:02;76.53;;;41.63;;
25905;SDS011;13713;52.552;13.204;2024-03-02T12:57:32;71.97;;;42.07;;
25905;SDS011;13713;52.552;13.204;2024-03-02T13:00:03;69.68;;;41.00;;
25905;SDS011;13713;52.552;13.204;2024-03-02T13:02:41;72.15;;;39.92;;
25905;SDS011;13713;52.552;13.204;2024-03-02T13:05:07;73.50;;;41.88;;
25905;SDS011;13713;52.552;13.204;2024-03-02T13:07:36;73.40;;;40.75;;
25905;SDS011;13713;52.552;13.204;2024-03-02T13:10:03;69.57;;;40.67;;
25905;SDS011;13713;52.552;13.204;2024-03-02T13:12:29;74.97;;;42.00;;
25905;SDS011;13713;52.552;13.204;2024-03-02T13:14:57;72.32;;;42.05;;
25905;SDS011;13713;52.552;13.204;2024-03-02T13:17:24;70.75;;;40.63;;
25905;SDS011;13713;52.552;13.204;2024-03-02T13:19:50;71.53;;;41.25;;
25905;SDS011;13713;52.552;13.204;2024-03-02T13:22:23;74.80;;;42.47;;
25905;SDS011;13713;52.552;13.204;2024-03-02T13:24:50;70.93;;;40.45;;
25905;SDS011;13713;52.552;13.204;2024-03-02T13:27:17;67.95;;;40.25;;
25905;SDS011;13713;52.552;13.204;2024-03-02T13:29:46;68.90;;;40.22;;
25905;SDS011;13713;52.552;13.204;2024-03-02T13:32:18;72.78;;;41.00;;
25905;SDS011;13713;52.552;13.204;2024-03-02T13:34:48;71.38;;;41.20;;
25905;SDS011;13713;52.552;13.204;2024-03-02T13:37:14;73.05;;;40.38;;
25905;SDS011;13713;52.552;13.204;2024-03-02T13:39:40;67.93;;;39.25;;
25905;SDS011;13713;52.552;13.204;2024-03-02T13:42:10;71.97;;;40.40;;
25905;SDS011;13713;52.552;13.204;2024-03-02T13:47:04;68.72;;;38.83;;
25905;SDS011;13713;52.552;13.204;2024-03-02T13:49:31;71.35;;;40.80;;
25905;SDS011;13713;52.552;13.204;2024-03-02T13:52:05;79.90;;;39.28;;
25905;SDS011;13713;52.552;13.204;2024-03-02T13:54:38;66.35;;;38.63;;
25905;SDS011;13713;52.552;13.204;2024-03-02T13:57:05;68.40;;;39.88;;
25905;SDS011;13713;52.552;13.204;2024-03-02T13:59:32;74.72;;;40.90;;
25905;SDS011;13713;52.552;13.204;2024-03-02T14:02:00;70.35;;;40.30;;
25905;SDS011;13713;52.552;13.204;2024-03-02T14:04:36;68.53;;;40.17;;
25905;SDS011;13713;52.552;13.204;2024-03-02T14:07:02;70.35;;;41.00;;
25905;SDS011;13713;52.552;13.204;2024-03-02T14:09:28;71.47;;;40.10;;
25905;SDS011;13713;52.552;13.204;2024-03-02T14:11:54;72.47;;;39.72;;
25905;SDS011;13713;52.552;13.204;2024-03-02T14:14:21;63.88;;;38.13;;
25905;SDS011;13713;52.552;13.204;2024-03-02T14:16:47;71.13;;;39.65;;
25905;SDS011;13713;52.552;13.204;2024-03-02T14:19:12;68.43;;;39.60;;